Hlavní strana
METAR-TAF:

METAR-TAF

Letiště :

Lakselv, Norsko

zeměpisná šířka: 70-04N, zeměpisná délka: 024-59E, výška: 0 m

Aktuální stav počasí

Zpráva byla vytvořena před 40 minutami, v 13:20 UTC
Východoseverovýchodní vítr 10 kt
Teplota -1°C
Vlhkost vzduchu 64%
Tlak 1006 hPa
Viditelnost 10 km a více
Skoro jasno ve výšce 3200 ft
Polojasno ve výšce 3900 ft
Oblačno až skoro zataženo ve výšce 5100 ft
přeháňky v blízkosti

METAR: ENNA 181320Z 07010KT 9999 VCSH FEW032 SCT039 BKN051 M01/M07 Q1006 RMK WIND 1800FT 09013KT

Čas: 15:00 (14:00 UTC)

Předpověď počasí

Předpověď platná od 18 v 12 UTC do 19 v 12 UTC
Severoseverovýchodní vítr 8 kt
Viditelnost 10 km a více
Skoro jasno ve výšce 1500 ft
Oblačno až skoro zataženo ve výšce 3000 ft
Pravděpodobnost 30% :
Dočasný
od 19 v 00 UTC do 19 v 06 UTC
Oblačno až skoro zataženo ve výšce 1400 ft

TAF: ENNA 1812/1912 02008KT 9999 FEW015 BKN030 PROB30 TEMPO 1900/1906 BKN014

Stav a předpovědi počasí z více než 4 000 letišť (zprávy METAR a TAF).

Červené a žluté tečky na mapě představují dostupné meteorologické stanice.

Když kurzor umístíte na tečku, zobrazí se název stanice.

Pak kliknutím zobrazíte stav a předpověď počasí.

Chcete-li změnit mapu, kliknutím na zelené tlačítko se znaménkem +mapu přiblížíte, kliknutím na zelené tlačítko se znaménkem – mapu oddálíte a kliknutím na zelené šipky přejdete na sousední mapy.


METAR-TAF: